sensor_id;sensor_type;location;lat;lon;timestamp;P1;durP1;ratioP1;P2;durP2;ratioP2
2610;SDS011;5612;51.134;17.058;2022-07-18T00:00:45;5.83;;;5.23;;
2610;SDS011;5612;51.134;17.058;2022-07-18T00:03:14;5.30;;;4.83;;
2610;SDS011;5612;51.134;17.058;2022-07-18T00:05:43;6.00;;;5.53;;
2610;SDS011;5612;51.134;17.058;2022-07-18T00:08:12;5.73;;;5.27;;
2610;SDS011;5612;51.134;17.058;2022-07-18T00:10:42;7.63;;;5.53;;
2610;SDS011;5612;51.134;17.058;2022-07-18T00:13:11;6.30;;;5.70;;
2610;SDS011;5612;51.134;17.058;2022-07-18T00:15:43;5.43;;;5.03;;
2610;SDS011;5612;51.134;17.058;2022-07-18T00:18:13;7.47;;;5.73;;
2610;SDS011;5612;51.134;17.058;2022-07-18T00:20:42;6.50;;;4.70;;
2610;SDS011;5612;51.134;17.058;2022-07-18T00:23:11;6.73;;;4.93;;
2610;SDS011;5612;51.134;17.058;2022-07-18T00:25:40;5.30;;;4.80;;
2610;SDS011;5612;51.134;17.058;2022-07-18T00:28:10;10.33;;;5.40;;
2610;SDS011;5612;51.134;17.058;2022-07-18T00:30:39;7.10;;;5.53;;
2610;SDS011;5612;51.134;17.058;2022-07-18T00:33:10;7.83;;;6.17;;
2610;SDS011;5612;51.134;17.058;2022-07-18T00:35:39;7.53;;;5.60;;
2610;SDS011;5612;51.134;17.058;2022-07-18T00:38:08;6.60;;;6.10;;
2610;SDS011;5612;51.134;17.058;2022-07-18T00:40:37;7.43;;;5.90;;
2610;SDS011;5612;51.134;17.058;2022-07-18T00:43:07;7.03;;;6.40;;
2610;SDS011;5612;51.134;17.058;2022-07-18T00:45:37;7.20;;;6.40;;
2610;SDS011;5612;51.134;17.058;2022-07-18T00:48:06;6.83;;;6.13;;
2610;SDS011;5612;51.134;17.058;2022-07-18T00:50:38;8.80;;;7.57;;
2610;SDS011;5612;51.134;17.058;2022-07-18T00:53:08;8.30;;;6.10;;
2610;SDS011;5612;51.134;17.058;2022-07-18T00:55:38;8.13;;;6.67;;
2610;SDS011;5612;51.134;17.058;2022-07-18T00:58:08;6.30;;;5.80;;
2610;SDS011;5612;51.134;17.058;2022-07-18T01:00:37;7.43;;;6.73;;
2610;SDS011;5612;51.134;17.058;2022-07-18T01:03:24;8.77;;;6.93;;
2610;SDS011;5612;51.134;17.058;2022-07-18T01:05:55;10.00;;;7.43;;
2610;SDS011;5612;51.134;17.058;2022-07-18T01:08:26;7.80;;;6.83;;
2610;SDS011;5612;51.134;17.058;2022-07-18T01:10:55;7.50;;;6.70;;
2610;SDS011;5612;51.134;17.058;2022-07-18T01:13:24;8.10;;;7.27;;
2610;SDS011;5612;51.134;17.058;2022-07-18T01:15:54;6.90;;;6.20;;
2610;SDS011;5612;51.134;17.058;2022-07-18T01:18:23;6.20;;;5.70;;
2610;SDS011;5612;51.134;17.058;2022-07-18T01:20:54;8.90;;;6.77;;
2610;SDS011;5612;51.134;17.058;2022-07-18T01:23:23;7.33;;;6.13;;
2610;SDS011;5612;51.134;17.058;2022-07-18T01:25:54;9.97;;;6.47;;
2610;SDS011;5612;51.134;17.058;2022-07-18T01:28:24;5.90;;;5.30;;
2610;SDS011;5612;51.134;17.058;2022-07-18T01:30:53;5.60;;;5.07;;
2610;SDS011;5612;51.134;17.058;2022-07-18T01:33:22;7.33;;;5.73;;
2610;SDS011;5612;51.134;17.058;2022-07-18T01:35:54;5.20;;;4.80;;
2610;SDS011;5612;51.134;17.058;2022-07-18T01:38:23;6.10;;;5.50;;
2610;SDS011;5612;51.134;17.058;2022-07-18T01:40:52;11.37;;;5.53;;
2610;SDS011;5612;51.134;17.058;2022-07-18T01:43:22;5.67;;;5.07;;
2610;SDS011;5612;51.134;17.058;2022-07-18T01:45:52;6.93;;;6.10;;
2610;SDS011;5612;51.134;17.058;2022-07-18T01:48:21;7.37;;;6.60;;
2610;SDS011;5612;51.134;17.058;2022-07-18T01:50:51;7.20;;;5.20;;
2610;SDS011;5612;51.134;17.058;2022-07-18T01:53:22;7.63;;;5.60;;
2610;SDS011;5612;51.134;17.058;2022-07-18T01:55:52;6.80;;;5.97;;
2610;SDS011;5612;51.134;17.058;2022-07-18T01:58:24;7.13;;;6.00;;
2610;SDS011;5612;51.134;17.058;2022-07-18T02:00:53;6.93;;;5.43;;
2610;SDS011;5612;51.134;17.058;2022-07-18T02:03:22;7.13;;;6.03;;
2610;SDS011;5612;51.134;17.058;2022-07-18T02:05:51;7.40;;;5.50;;
2610;SDS011;5612;51.134;17.058;2022-07-18T02:08:22;8.30;;;5.77;;
2610;SDS011;5612;51.134;17.058;2022-07-18T02:10:51;7.83;;;6.50;;
2610;SDS011;5612;51.134;17.058;2022-07-18T02:13:20;10.43;;;6.87;;
2610;SDS011;5612;51.134;17.058;2022-07-18T02:15:50;8.30;;;7.50;;
2610;SDS011;5612;51.134;17.058;2022-07-18T02:18:22;8.20;;;6.80;;
2610;SDS011;5612;51.134;17.058;2022-07-18T02:20:52;17.27;;;7.33;;
2610;SDS011;5612;51.134;17.058;2022-07-18T02:23:23;9.90;;;8.30;;
2610;SDS011;5612;51.134;17.058;2022-07-18T02:25:52;11.17;;;7.20;;
2610;SDS011;5612;51.134;17.058;2022-07-18T02:28:21;12.83;;;7.63;;
2610;SDS011;5612;51.134;17.058;2022-07-18T02:30:51;9.37;;;6.37;;
2610;SDS011;5612;51.134;17.058;2022-07-18T02:33:20;6.47;;;5.80;;
2610;SDS011;5612;51.134;17.058;2022-07-18T02:35:54;7.50;;;6.10;;
2610;SDS011;5612;51.134;17.058;2022-07-18T02:38:25;6.43;;;5.63;;
2610;SDS011;5612;51.134;17.058;2022-07-18T02:40:54;6.60;;;5.30;;
2610;SDS011;5612;51.134;17.058;2022-07-18T02:43:24;6.43;;;5.80;;
2610;SDS011;5612;51.134;17.058;2022-07-18T02:45:54;7.90;;;7.10;;
2610;SDS011;5612;51.134;17.058;2022-07-18T02:48:24;8.20;;;5.83;;
2610;SDS011;5612;51.134;17.058;2022-07-18T02:50:53;9.80;;;6.73;;
2610;SDS011;5612;51.134;17.058;2022-07-18T02:53:22;8.33;;;7.63;;
2610;SDS011;5612;51.134;17.058;2022-07-18T02:55:53;8.93;;;7.53;;
2610;SDS011;5612;51.134;17.058;2022-07-18T02:58:22;10.27;;;9.27;;
2610;SDS011;5612;51.134;17.058;2022-07-18T03:00:51;11.23;;;6.87;;
2610;SDS011;5612;51.134;17.058;2022-07-18T03:03:20;8.00;;;6.97;;
2610;SDS011;5612;51.134;17.058;2022-07-18T03:05:50;8.07;;;7.27;;
2610;SDS011;5612;51.134;17.058;2022-07-18T03:08:19;7.70;;;6.90;;
2610;SDS011;5612;51.134;17.058;2022-07-18T03:10:48;8.83;;;5.97;;
2610;SDS011;5612;51.134;17.058;2022-07-18T03:13:19;8.10;;;5.90;;
2610;SDS011;5612;51.134;17.058;2022-07-18T03:15:48;6.60;;;5.90;;
2610;SDS011;5612;51.134;17.058;2022-07-18T03:18:18;7.57;;;6.80;;
2610;SDS011;5612;51.134;17.058;2022-07-18T03:20:49;9.60;;;7.10;;
2610;SDS011;5612;51.134;17.058;2022-07-18T03:23:18;9.47;;;7.00;;
2610;SDS011;5612;51.134;17.058;2022-07-18T03:25:47;9.13;;;6.43;;
2610;SDS011;5612;51.134;17.058;2022-07-18T03:28:16;10.10;;;8.20;;
2610;SDS011;5612;51.134;17.058;2022-07-18T03:30:47;8.73;;;7.07;;
2610;SDS011;5612;51.134;17.058;2022-07-18T03:33:17;7.93;;;7.23;;
2610;SDS011;5612;51.134;17.058;2022-07-18T03:35:46;8.10;;;7.20;;
2610;SDS011;5612;51.134;17.058;2022-07-18T03:38:15;11.40;;;7.73;;
2610;SDS011;5612;51.134;17.058;2022-07-18T03:40:44;9.10;;;7.20;;
2610;SDS011;5612;51.134;17.058;2022-07-18T03:43:13;8.90;;;6.83;;
2610;SDS011;5612;51.134;17.058;2022-07-18T03:45:44;7.70;;;6.70;;
2610;SDS011;5612;51.134;17.058;2022-07-18T03:48:15;9.20;;;7.83;;
2610;SDS011;5612;51.134;17.058;2022-07-18T03:50:44;9.07;;;7.03;;
2610;SDS011;5612;51.134;17.058;2022-07-18T03:53:13;7.20;;;6.57;;
2610;SDS011;5612;51.134;17.058;2022-07-18T03:55:42;8.10;;;7.47;;
2610;SDS011;5612;51.134;17.058;2022-07-18T03:58:12;8.77;;;7.87;;
2610;SDS011;5612;51.134;17.058;2022-07-18T04:00:41;8.33;;;7.43;;
2610;SDS011;5612;51.134;17.058;2022-07-18T04:03:12;7.30;;;6.63;;
2610;SDS011;5612;51.134;17.058;2022-07-18T04:05:43;8.10;;;7.23;;
2610;SDS011;5612;51.134;17.058;2022-07-18T04:08:12;10.13;;;6.80;;
2610;SDS011;5612;51.134;17.058;2022-07-18T04:10:41;7.83;;;6.60;;
2610;SDS011;5612;51.134;17.058;2022-07-18T04:13:11;9.30;;;5.80;;
2610;SDS011;5612;51.134;17.058;2022-07-18T04:15:41;11.43;;;6.23;;
2610;SDS011;5612;51.134;17.058;2022-07-18T04:18:13;7.90;;;6.10;;
2610;SDS011;5612;51.134;17.058;2022-07-18T04:20:42;5.17;;;4.70;;
2610;SDS011;5612;51.134;17.058;2022-07-18T04:23:11;10.43;;;5.60;;
2610;SDS011;5612;51.134;17.058;2022-07-18T04:25:41;9.00;;;5.30;;
2610;SDS011;5612;51.134;17.058;2022-07-18T04:28:11;6.23;;;5.60;;
2610;SDS011;5612;51.134;17.058;2022-07-18T04:30:41;8.43;;;6.10;;
2610;SDS011;5612;51.134;17.058;2022-07-18T04:33:14;6.13;;;5.30;;
2610;SDS011;5612;51.134;17.058;2022-07-18T04:35:43;6.83;;;5.50;;
2610;SDS011;5612;51.134;17.058;2022-07-18T04:38:12;6.43;;;5.53;;
2610;SDS011;5612;51.134;17.058;2022-07-18T04:40:41;5.83;;;5.33;;
2610;SDS011;5612;51.134;17.058;2022-07-18T04:43:10;6.10;;;5.40;;
2610;SDS011;5612;51.134;17.058;2022-07-18T04:45:39;8.90;;;6.10;;
2610;SDS011;5612;51.134;17.058;2022-07-18T04:48:09;10.03;;;6.20;;
2610;SDS011;5612;51.134;17.058;2022-07-18T04:50:40;6.20;;;5.60;;
2610;SDS011;5612;51.134;17.058;2022-07-18T04:53:09;9.07;;;5.30;;
2610;SDS011;5612;51.134;17.058;2022-07-18T04:55:38;6.73;;;6.03;;
2610;SDS011;5612;51.134;17.058;2022-07-18T04:58:07;10.07;;;6.97;;
2610;SDS011;5612;51.134;17.058;2022-07-18T05:00:37;10.03;;;5.23;;
2610;SDS011;5612;51.134;17.058;2022-07-18T05:03:06;9.20;;;5.70;;
2610;SDS011;5612;51.134;17.058;2022-07-18T05:05:36;7.63;;;6.93;;
2610;SDS011;5612;51.134;17.058;2022-07-18T05:08:07;8.03;;;5.43;;
2610;SDS011;5612;51.134;17.058;2022-07-18T05:10:39;7.00;;;6.20;;
2610;SDS011;5612;51.134;17.058;2022-07-18T05:13:09;5.90;;;5.30;;
2610;SDS011;5612;51.134;17.058;2022-07-18T05:15:38;6.30;;;5.20;;
2610;SDS011;5612;51.134;17.058;2022-07-18T05:18:08;8.57;;;6.00;;
2610;SDS011;5612;51.134;17.058;2022-07-18T05:20:37;5.00;;;4.70;;
2610;SDS011;5612;51.134;17.058;2022-07-18T05:23:12;6.40;;;5.00;;
2610;SDS011;5612;51.134;17.058;2022-07-18T05:25:44;9.93;;;5.80;;
2610;SDS011;5612;51.134;17.058;2022-07-18T05:28:22;9.50;;;5.40;;
2610;SDS011;5612;51.134;17.058;2022-07-18T05:30:51;7.90;;;5.13;;
2610;SDS011;5612;51.134;17.058;2022-07-18T05:33:21;8.07;;;4.90;;
2610;SDS011;5612;51.134;17.058;2022-07-18T05:35:51;9.13;;;4.43;;
2610;SDS011;5612;51.134;17.058;2022-07-18T05:38:21;7.70;;;5.40;;
2610;SDS011;5612;51.134;17.058;2022-07-18T05:40:50;4.83;;;4.43;;
2610;SDS011;5612;51.134;17.058;2022-07-18T05:43:20;7.90;;;5.57;;
2610;SDS011;5612;51.134;17.058;2022-07-18T05:45:49;7.93;;;5.20;;
2610;SDS011;5612;51.134;17.058;2022-07-18T05:48:18;8.00;;;5.53;;
2610;SDS011;5612;51.134;17.058;2022-07-18T05:50:47;8.40;;;4.73;;
2610;SDS011;5612;51.134;17.058;2022-07-18T05:53:16;6.60;;;4.93;;
2610;SDS011;5612;51.134;17.058;2022-07-18T05:55:46;7.40;;;5.20;;
2610;SDS011;5612;51.134;17.058;2022-07-18T05:58:15;10.50;;;5.10;;
2610;SDS011;5612;51.134;17.058;2022-07-18T06:00:44;8.27;;;5.23;;
2610;SDS011;5612;51.134;17.058;2022-07-18T06:03:13;8.70;;;5.13;;
2610;SDS011;5612;51.134;17.058;2022-07-18T06:05:42;6.30;;;4.73;;
2610;SDS011;5612;51.134;17.058;2022-07-18T06:08:10;5.73;;;4.47;;
2610;SDS011;5612;51.134;17.058;2022-07-18T06:10:39;6.80;;;5.80;;
2610;SDS011;5612;51.134;17.058;2022-07-18T06:13:13;11.00;;;4.57;;
2610;SDS011;5612;51.134;17.058;2022-07-18T06:15:42;6.10;;;4.60;;
2610;SDS011;5612;51.134;17.058;2022-07-18T06:18:11;5.87;;;3.90;;
2610;SDS011;5612;51.134;17.058;2022-07-18T06:20:40;8.57;;;4.80;;
2610;SDS011;5612;51.134;17.058;2022-07-18T06:23:09;5.77;;;4.50;;
2610;SDS011;5612;51.134;17.058;2022-07-18T06:25:38;8.27;;;4.63;;
2610;SDS011;5612;51.134;17.058;2022-07-18T06:28:07;7.00;;;3.83;;
2610;SDS011;5612;51.134;17.058;2022-07-18T06:30:37;4.80;;;3.20;;
2610;SDS011;5612;51.134;17.058;2022-07-18T06:33:06;7.20;;;4.07;;
2610;SDS011;5612;51.134;17.058;2022-07-18T06:35:35;4.53;;;4.00;;
2610;SDS011;5612;51.134;17.058;2022-07-18T06:38:13;5.53;;;3.37;;
2610;SDS011;5612;51.134;17.058;2022-07-18T06:40:48;4.80;;;3.83;;
2610;SDS011;5612;51.134;17.058;2022-07-18T06:43:17;6.30;;;3.70;;
2610;SDS011;5612;51.134;17.058;2022-07-18T06:45:48;10.57;;;4.03;;
2610;SDS011;5612;51.134;17.058;2022-07-18T06:48:18;8.20;;;4.07;;
2610;SDS011;5612;51.134;17.058;2022-07-18T06:50:47;6.57;;;4.20;;
2610;SDS011;5612;51.134;17.058;2022-07-18T06:53:16;5.03;;;4.13;;
2610;SDS011;5612;51.134;17.058;2022-07-18T06:55:45;8.50;;;4.03;;
2610;SDS011;5612;51.134;17.058;2022-07-18T06:58:14;4.80;;;3.40;;
2610;SDS011;5612;51.134;17.058;2022-07-18T07:00:43;3.50;;;2.30;;
2610;SDS011;5612;51.134;17.058;2022-07-18T07:03:14;5.37;;;3.40;;
2610;SDS011;5612;51.134;17.058;2022-07-18T07:05:43;4.33;;;2.73;;
2610;SDS011;5612;51.134;17.058;2022-07-18T07:08:12;6.80;;;2.37;;
2610;SDS011;5612;51.134;17.058;2022-07-18T07:10:42;3.50;;;2.80;;
2610;SDS011;5612;51.134;17.058;2022-07-18T07:13:11;2.70;;;2.50;;
2610;SDS011;5612;51.134;17.058;2022-07-18T07:15:43;2.33;;;2.00;;
2610;SDS011;5612;51.134;17.058;2022-07-18T07:18:14;2.40;;;1.77;;
2610;SDS011;5612;51.134;17.058;2022-07-18T07:20:44;2.67;;;2.20;;
2610;SDS011;5612;51.134;17.058;2022-07-18T07:23:13;3.57;;;2.17;;
2610;SDS011;5612;51.134;17.058;2022-07-18T07:25:43;4.33;;;1.90;;
2610;SDS011;5612;51.134;17.058;2022-07-18T07:28:12;2.13;;;1.90;;
2610;SDS011;5612;51.134;17.058;2022-07-18T07:30:41;3.50;;;1.70;;
2610;SDS011;5612;51.134;17.058;2022-07-18T07:33:10;3.37;;;1.83;;
2610;SDS011;5612;51.134;17.058;2022-07-18T07:35:41;2.33;;;2.13;;
2610;SDS011;5612;51.134;17.058;2022-07-18T07:38:10;3.20;;;1.70;;
2610;SDS011;5612;51.134;17.058;2022-07-18T07:40:45;2.10;;;1.83;;
2610;SDS011;5612;51.134;17.058;2022-07-18T07:43:16;1.97;;;1.53;;
2610;SDS011;5612;51.134;17.058;2022-07-18T07:45:46;3.30;;;1.90;;
2610;SDS011;5612;51.134;17.058;2022-07-18T07:48:17;3.07;;;2.00;;
2610;SDS011;5612;51.134;17.058;2022-07-18T07:50:48;2.53;;;2.10;;
2610;SDS011;5612;51.134;17.058;2022-07-18T07:53:20;2.85;;;2.10;;
2610;SDS011;5612;51.134;17.058;2022-07-18T07:55:50;2.53;;;1.48;;
2610;SDS011;5612;51.134;17.058;2022-07-18T07:58:20;4.50;;;1.60;;
2610;SDS011;5612;51.134;17.058;2022-07-18T08:00:49;2.97;;;2.40;;
2610;SDS011;5612;51.134;17.058;2022-07-18T08:03:18;6.72;;;1.73;;
2610;SDS011;5612;51.134;17.058;2022-07-18T08:05:49;3.22;;;1.55;;
2610;SDS011;5612;51.134;17.058;2022-07-18T08:08:19;1.80;;;1.50;;
2610;SDS011;5612;51.134;17.058;2022-07-18T08:10:48;2.20;;;1.50;;
2610;SDS011;5612;51.134;17.058;2022-07-18T08:13:17;1.40;;;1.30;;
2610;SDS011;5612;51.134;17.058;2022-07-18T08:15:46;2.83;;;1.75;;
2610;SDS011;5612;51.134;17.058;2022-07-18T08:18:16;2.40;;;1.40;;
2610;SDS011;5612;51.134;17.058;2022-07-18T08:20:45;3.45;;;1.88;;
2610;SDS011;5612;51.134;17.058;2022-07-18T08:23:15;1.52;;;1.27;;
2610;SDS011;5612;51.134;17.058;2022-07-18T08:25:45;1.58;;;1.48;;
2610;SDS011;5612;51.134;17.058;2022-07-18T08:28:15;1.77;;;1.67;;
2610;SDS011;5612;51.134;17.058;2022-07-18T08:30:46;1.90;;;1.80;;
2610;SDS011;5612;51.134;17.058;2022-07-18T08:33:15;2.85;;;1.50;;
2610;SDS011;5612;51.134;17.058;2022-07-18T08:35:45;2.83;;;1.50;;
2610;SDS011;5612;51.134;17.058;2022-07-18T08:38:16;1.30;;;1.20;;
2610;SDS011;5612;51.134;17.058;2022-07-18T08:40:45;2.10;;;1.83;;
2610;SDS011;5612;51.134;17.058;2022-07-18T08:43:17;1.65;;;1.55;;
2610;SDS011;5612;51.134;17.058;2022-07-18T08:45:49;2.40;;;1.50;;
2610;SDS011;5612;51.134;17.058;2022-07-18T08:48:23;1.65;;;1.23;;
2610;SDS011;5612;51.134;17.058;2022-07-18T08:50:52;1.55;;;1.25;;
2610;SDS011;5612;51.134;17.058;2022-07-18T08:53:23;1.90;;;1.80;;
2610;SDS011;5612;51.134;17.058;2022-07-18T08:55:53;1.40;;;1.30;;
2610;SDS011;5612;51.134;17.058;2022-07-18T08:58:22;1.60;;;1.50;;
2610;SDS011;5612;51.134;17.058;2022-07-18T09:01:10;3.25;;;1.50;;
2610;SDS011;5612;51.134;17.058;2022-07-18T09:03:39;6.53;;;6.03;;
2610;SDS011;5612;51.134;17.058;2022-07-18T09:06:08;2.13;;;1.70;;
2610;SDS011;5612;51.134;17.058;2022-07-18T09:08:40;1.50;;;1.40;;
2610;SDS011;5612;51.134;17.058;2022-07-18T09:11:25;2.92;;;1.40;;
2610;SDS011;5612;51.134;17.058;2022-07-18T09:14:26;1.98;;;1.15;;
2610;SDS011;5612;51.134;17.058;2022-07-18T09:17:01;3.47;;;1.30;;
2610;SDS011;5612;51.134;17.058;2022-07-18T09:19:31;2.13;;;1.33;;
2610;SDS011;5612;51.134;17.058;2022-07-18T09:22:10;2.35;;;1.40;;
2610;SDS011;5612;51.134;17.058;2022-07-18T09:24:55;3.05;;;1.50;;
2610;SDS011;5612;51.134;17.058;2022-07-18T09:27:28;2.65;;;2.10;;
2610;SDS011;5612;51.134;17.058;2022-07-18T09:30:10;1.92;;;1.83;;
2610;SDS011;5612;51.134;17.058;2022-07-18T09:32:52;4.22;;;1.85;;
2610;SDS011;5612;51.134;17.058;2022-07-18T09:35:36;2.00;;;1.20;;
2610;SDS011;5612;51.134;17.058;2022-07-18T09:38:18;1.95;;;1.35;;
2610;SDS011;5612;51.134;17.058;2022-07-18T09:40:59;3.58;;;1.65;;
2610;SDS011;5612;51.134;17.058;2022-07-18T09:43:37;2.47;;;1.92;;
2610;SDS011;5612;51.134;17.058;2022-07-18T09:46:10;2.90;;;1.40;;
2610;SDS011;5612;51.134;17.058;2022-07-18T09:48:45;3.67;;;1.70;;
2610;SDS011;5612;51.134;17.058;2022-07-18T09:51:14;2.85;;;1.67;;
2610;SDS011;5612;51.134;17.058;2022-07-18T09:53:44;2.83;;;1.75;;
2610;SDS011;5612;51.134;17.058;2022-07-18T09:56:24;2.47;;;1.80;;
2610;SDS011;5612;51.134;17.058;2022-07-18T09:58:55;1.75;;;1.50;;
2610;SDS011;5612;51.134;17.058;2022-07-18T10:01:24;2.08;;;1.80;;
2610;SDS011;5612;51.134;17.058;2022-07-18T10:03:55;2.13;;;1.92;;
2610;SDS011;5612;51.134;17.058;2022-07-18T10:06:26;2.58;;;1.50;;
2610;SDS011;5612;51.134;17.058;2022-07-18T10:08:55;1.42;;;1.33;;
2610;SDS011;5612;51.134;17.058;2022-07-18T10:11:27;3.67;;;1.58;;
2610;SDS011;5612;51.134;17.058;2022-07-18T10:13:56;2.72;;;1.33;;
2610;SDS011;5612;51.134;17.058;2022-07-18T10:16:30;2.65;;;1.60;;
2610;SDS011;5612;51.134;17.058;2022-07-18T10:19:21;2.25;;;2.05;;
2610;SDS011;5612;51.134;17.058;2022-07-18T10:21:50;1.95;;;1.50;;
2610;SDS011;5612;51.134;17.058;2022-07-18T10:24:21;2.53;;;1.27;;
2610;SDS011;5612;51.134;17.058;2022-07-18T10:27:15;2.10;;;1.75;;
2610;SDS011;5612;51.134;17.058;2022-07-18T10:32:36;2.28;;;1.52;;
2610;SDS011;5612;51.134;17.058;2022-07-18T10:35:06;1.60;;;1.50;;
2610;SDS011;5612;51.134;17.058;2022-07-18T10:37:37;2.67;;;1.58;;
2610;SDS011;5612;51.134;17.058;2022-07-18T10:40:23;2.75;;;1.60;;
2610;SDS011;5612;51.134;17.058;2022-07-18T10:46:02;1.63;;;1.40;;
2610;SDS011;5612;51.134;17.058;2022-07-18T10:51:34;1.90;;;1.80;;
2610;SDS011;5612;51.134;17.058;2022-07-18T10:54:05;1.80;;;1.70;;
2610;SDS011;5612;51.134;17.058;2022-07-18T11:02:35;2.10;;;1.58;;
2610;SDS011;5612;51.134;17.058;2022-07-18T11:08:16;1.60;;;1.50;;
2610;SDS011;5612;51.134;17.058;2022-07-18T11:11:07;1.63;;;1.52;;
2610;SDS011;5612;51.134;17.058;2022-07-18T11:13:38;1.88;;;1.77;;
2610;SDS011;5612;51.134;17.058;2022-07-18T11:16:10;2.38;;;1.67;;
2610;SDS011;5612;51.134;17.058;2022-07-18T11:21:57;2.97;;;1.70;;
2610;SDS011;5612;51.134;17.058;2022-07-18T11:24:26;2.92;;;1.40;;
2610;SDS011;5612;51.134;17.058;2022-07-18T11:26:55;1.75;;;1.52;;
2610;SDS011;5612;51.134;17.058;2022-07-18T11:29:25;2.35;;;1.33;;
2610;SDS011;5612;51.134;17.058;2022-07-18T11:31:57;1.80;;;1.70;;
2610;SDS011;5612;51.134;17.058;2022-07-18T11:34:27;1.30;;;1.20;;
2610;SDS011;5612;51.134;17.058;2022-07-18T11:37:07;3.58;;;1.30;;
2610;SDS011;5612;51.134;17.058;2022-07-18T11:39:36;1.80;;;1.20;;
2610;SDS011;5612;51.134;17.058;2022-07-18T11:42:06;2.15;;;1.55;;
2610;SDS011;5612;51.134;17.058;2022-07-18T11:44:36;1.65;;;1.33;;
2610;SDS011;5612;51.134;17.058;2022-07-18T11:47:10;1.60;;;1.50;;
2610;SDS011;5612;51.134;17.058;2022-07-18T11:49:44;1.40;;;1.30;;
2610;SDS011;5612;51.134;17.058;2022-07-18T11:52:22;2.22;;;1.30;;
2610;SDS011;5612;51.134;17.058;2022-07-18T11:54:57;1.45;;;1.35;;
2610;SDS011;5612;51.134;17.058;2022-07-18T11:57:27;2.42;;;2.15;;
2610;SDS011;5612;51.134;17.058;2022-07-18T11:59:57;1.63;;;1.52;;
2610;SDS011;5612;51.134;17.058;2022-07-18T12:02:28;3.00;;;1.67;;
2610;SDS011;5612;51.134;17.058;2022-07-18T12:04:57;1.77;;;1.40;;
2610;SDS011;5612;51.134;17.058;2022-07-18T12:07:26;2.95;;;1.45;;
2610;SDS011;5612;51.134;17.058;2022-07-18T12:09:55;3.00;;;1.52;;
2610;SDS011;5612;51.134;17.058;2022-07-18T12:12:24;3.08;;;1.60;;
2610;SDS011;5612;51.134;17.058;2022-07-18T12:14:54;1.83;;;1.35;;
2610;SDS011;5612;51.134;17.058;2022-07-18T12:17:25;1.83;;;1.10;;
2610;SDS011;5612;51.134;17.058;2022-07-18T12:20:09;2.85;;;1.80;;
2610;SDS011;5612;51.134;17.058;2022-07-18T12:28:26;1.63;;;1.40;;
2610;SDS011;5612;51.134;17.058;2022-07-18T12:30:56;7.90;;;2.33;;
2610;SDS011;5612;51.134;17.058;2022-07-18T12:33:27;2.38;;;1.67;;
2610;SDS011;5612;51.134;17.058;2022-07-18T12:35:59;1.50;;;1.40;;
2610;SDS011;5612;51.134;17.058;2022-07-18T12:38:29;4.28;;;1.55;;
2610;SDS011;5612;51.134;17.058;2022-07-18T12:40:58;1.45;;;1.30;;
2610;SDS011;5612;51.134;17.058;2022-07-18T12:43:30;1.33;;;1.33;;
2610;SDS011;5612;51.134;17.058;2022-07-18T12:46:01;1.13;;;1.02;;
2610;SDS011;5612;51.134;17.058;2022-07-18T12:48:31;1.60;;;1.50;;
2610;SDS011;5612;51.134;17.058;2022-07-18T12:51:04;2.03;;;1.38;;
2610;SDS011;5612;51.134;17.058;2022-07-18T12:53:35;1.70;;;1.60;;
2610;SDS011;5612;51.134;17.058;2022-07-18T12:56:06;1.80;;;1.70;;
2610;SDS011;5612;51.134;17.058;2022-07-18T12:58:35;2.28;;;1.52;;
2610;SDS011;5612;51.134;17.058;2022-07-18T13:01:05;1.45;;;1.35;;
2610;SDS011;5612;51.134;17.058;2022-07-18T13:03:34;1.75;;;1.45;;
2610;SDS011;5612;51.134;17.058;2022-07-18T13:06:05;2.10;;;1.90;;
2610;SDS011;5612;51.134;17.058;2022-07-18T13:08:34;2.45;;;1.92;;
2610;SDS011;5612;51.134;17.058;2022-07-18T13:11:03;2.00;;;1.20;;
2610;SDS011;5612;51.134;17.058;2022-07-18T13:13:32;1.35;;;1.10;;
2610;SDS011;5612;51.134;17.058;2022-07-18T13:16:01;1.15;;;1.10;;
2610;SDS011;5612;51.134;17.058;2022-07-18T13:18:30;1.42;;;1.27;;
2610;SDS011;5612;51.134;17.058;2022-07-18T13:20:59;1.30;;;1.20;;
2610;SDS011;5612;51.134;17.058;2022-07-18T13:23:30;4.57;;;1.65;;
2610;SDS011;5612;51.134;17.058;2022-07-18T13:25:59;1.50;;;1.35;;
2610;SDS011;5612;51.134;17.058;2022-07-18T13:28:28;1.30;;;1.20;;
2610;SDS011;5612;51.134;17.058;2022-07-18T13:30:57;3.78;;;1.60;;
2610;SDS011;5612;51.134;17.058;2022-07-18T13:33:25;1.77;;;1.30;;
2610;SDS011;5612;51.134;17.058;2022-07-18T13:35:55;2.60;;;1.40;;
2610;SDS011;5612;51.134;17.058;2022-07-18T13:38:23;1.48;;;1.38;;
2610;SDS011;5612;51.134;17.058;2022-07-18T13:40:54;1.42;;;1.38;;
2610;SDS011;5612;51.134;17.058;2022-07-18T13:43:23;1.40;;;1.30;;
2610;SDS011;5612;51.134;17.058;2022-07-18T13:45:55;1.42;;;1.25;;
2610;SDS011;5612;51.134;17.058;2022-07-18T13:48:29;1.35;;;1.25;;
2610;SDS011;5612;51.134;17.058;2022-07-18T13:50:58;1.30;;;1.20;;
2610;SDS011;5612;51.134;17.058;2022-07-18T13:53:27;4.57;;;1.67;;
2610;SDS011;5612;51.134;17.058;2022-07-18T13:56:00;2.05;;;1.30;;
2610;SDS011;5612;51.134;17.058;2022-07-18T13:58:29;0.90;;;0.85;;
2610;SDS011;5612;51.134;17.058;2022-07-18T14:00:58;4.25;;;3.92;;
2610;SDS011;5612;51.134;17.058;2022-07-18T14:03:27;2.35;;;1.77;;
2610;SDS011;5612;51.134;17.058;2022-07-18T14:05:57;1.63;;;1.52;;
2610;SDS011;5612;51.134;17.058;2022-07-18T14:08:27;1.20;;;1.20;;
2610;SDS011;5612;51.134;17.058;2022-07-18T14:10:56;3.10;;;1.50;;
2610;SDS011;5612;51.134;17.058;2022-07-18T14:13:26;1.67;;;1.23;;
2610;SDS011;5612;51.134;17.058;2022-07-18T14:15:56;1.52;;;1.42;;
2610;SDS011;5612;51.134;17.058;2022-07-18T14:18:25;4.05;;;1.58;;
2610;SDS011;5612;51.134;17.058;2022-07-18T14:20:55;1.88;;;1.55;;
2610;SDS011;5612;51.134;17.058;2022-07-18T14:23:24;5.22;;;4.18;;
2610;SDS011;5612;51.134;17.058;2022-07-18T14:25:52;2.95;;;1.75;;
2610;SDS011;5612;51.134;17.058;2022-07-18T14:28:21;4.88;;;1.60;;
2610;SDS011;5612;51.134;17.058;2022-07-18T14:30:53;2.65;;;1.58;;
2610;SDS011;5612;51.134;17.058;2022-07-18T14:33:22;1.60;;;1.50;;
2610;SDS011;5612;51.134;17.058;2022-07-18T14:35:52;1.88;;;1.65;;
2610;SDS011;5612;51.134;17.058;2022-07-18T14:38:22;2.63;;;1.95;;
2610;SDS011;5612;51.134;17.058;2022-07-18T14:40:51;2.05;;;1.95;;
2610;SDS011;5612;51.134;17.058;2022-07-18T14:43:21;3.17;;;1.65;;
2610;SDS011;5612;51.134;17.058;2022-07-18T14:45:55;1.80;;;1.52;;
2610;SDS011;5612;51.134;17.058;2022-07-18T14:48:30;2.40;;;1.67;;
2610;SDS011;5612;51.134;17.058;2022-07-18T14:50:59;2.55;;;1.40;;
2610;SDS011;5612;51.134;17.058;2022-07-18T14:53:30;3.28;;;1.50;;
2610;SDS011;5612;51.134;17.058;2022-07-18T14:56:01;2.70;;;1.58;;
2610;SDS011;5612;51.134;17.058;2022-07-18T14:58:31;1.55;;;1.45;;
2610;SDS011;5612;51.134;17.058;2022-07-18T15:01:02;1.75;;;1.50;;
2610;SDS011;5612;51.134;17.058;2022-07-18T15:03:32;1.60;;;1.50;;
2610;SDS011;5612;51.134;17.058;2022-07-18T15:06:21;1.60;;;1.40;;
2610;SDS011;5612;51.134;17.058;2022-07-18T15:08:50;2.38;;;1.70;;
2610;SDS011;5612;51.134;17.058;2022-07-18T15:11:19;3.03;;;2.20;;
2610;SDS011;5612;51.134;17.058;2022-07-18T15:13:51;4.22;;;1.67;;
2610;SDS011;5612;51.134;17.058;2022-07-18T15:16:22;2.33;;;1.50;;
2610;SDS011;5612;51.134;17.058;2022-07-18T15:18:52;3.28;;;1.70;;
2610;SDS011;5612;51.134;17.058;2022-07-18T15:21:21;1.75;;;1.45;;
2610;SDS011;5612;51.134;17.058;2022-07-18T15:23:50;2.65;;;2.45;;
2610;SDS011;5612;51.134;17.058;2022-07-18T15:26:19;1.98;;;1.85;;
2610;SDS011;5612;51.134;17.058;2022-07-18T15:28:50;4.40;;;1.60;;
2610;SDS011;5612;51.134;17.058;2022-07-18T15:31:22;2.67;;;1.77;;
2610;SDS011;5612;51.134;17.058;2022-07-18T15:33:52;1.80;;;1.67;;
2610;SDS011;5612;51.134;17.058;2022-07-18T15:36:22;2.38;;;2.28;;
2610;SDS011;5612;51.134;17.058;2022-07-18T15:38:51;2.92;;;2.72;;
2610;SDS011;5612;51.134;17.058;2022-07-18T15:41:20;3.33;;;1.92;;
2610;SDS011;5612;51.134;17.058;2022-07-18T15:43:50;2.35;;;1.55;;
2610;SDS011;5612;51.134;17.058;2022-07-18T15:46:24;2.03;;;1.48;;
2610;SDS011;5612;51.134;17.058;2022-07-18T15:48:55;2.97;;;1.70;;